Terminal Aerodrome Forecast
Issued by NWS

Home | Current Version | Previous Version | Text Only | Print | Product List | Glossary On
Versions: 1 2 3 4 5 6 7 8 9 10 11 12 13 14 15 16 17 18 19 20
000
FTAK31 PANC 190528
TAFADU
TAF
PADU 190528Z 1906/2006 07010KT P6SM VCSH OVC025
     FM191200 34011KT P6SM SCT025 BKN040
     FM192200 35015KT 5SM -SN BKN025 OVC040=

USA.gov is the U.S. government's official web portal to all federal, state and local government web resources and services.